sensor_id;sensor_type;location;lat;lon;timestamp;pressure;altitude;pressure_sealevel;temperature;humidity
19890;BME280;10107;51.198;6.824;2023-02-23T00:02:48;-21546.69;;;8.65;100.00
19890;BME280;10107;51.198;6.824;2023-02-23T00:06:50;-21546.16;;;8.63;100.00
19890;BME280;10107;51.198;6.824;2023-02-23T00:10:52;-21546.03;;;8.62;100.00
19890;BME280;10107;51.198;6.824;2023-02-23T00:14:57;-21545.63;;;8.61;100.00
19890;BME280;10107;51.198;6.824;2023-02-23T00:19:00;-21545.50;;;8.60;100.00
19890;BME280;10107;51.198;6.824;2023-02-23T00:23:02;-21545.09;;;8.59;100.00
19890;BME280;10107;51.198;6.824;2023-02-23T00:27:04;-21545.38;;;8.60;100.00
19890;BME280;10107;51.198;6.824;2023-02-23T00:31:07;-21545.09;;;8.59;100.00
19890;BME280;10107;51.198;6.824;2023-02-23T00:35:10;-21545.22;;;8.59;100.00
19890;BME280;10107;51.198;6.824;2023-02-23T00:39:17;-21545.22;;;8.59;100.00
19890;BME280;10107;51.198;6.824;2023-02-23T00:43:21;-21545.09;;;8.59;100.00
19890;BME280;10107;51.198;6.824;2023-02-23T00:47:24;-21544.81;;;8.58;100.00
19890;BME280;10107;51.198;6.824;2023-02-23T00:51:27;-21544.81;;;8.58;100.00
19890;BME280;10107;51.198;6.824;2023-02-23T00:55:30;-21544.97;;;8.58;100.00
19890;BME280;10107;51.198;6.824;2023-02-23T00:59:31;-21544.56;;;8.57;100.00
19890;BME280;10107;51.198;6.824;2023-02-23T01:03:32;-21544.69;;;8.57;100.00
19890;BME280;10107;51.198;6.824;2023-02-23T01:07:36;-21544.69;;;8.57;100.00
19890;BME280;10107;51.198;6.824;2023-02-23T01:11:37;-21544.28;;;8.56;100.00
19890;BME280;10107;51.198;6.824;2023-02-23T01:15:41;-21544.28;;;8.56;100.00
19890;BME280;10107;51.198;6.824;2023-02-23T01:19:43;-21543.91;;;8.54;100.00
19890;BME280;10107;51.198;6.824;2023-02-23T01:23:46;-21544.03;;;8.55;100.00
19890;BME280;10107;51.198;6.824;2023-02-23T01:27:47;-21543.75;;;8.53;100.00
19890;BME280;10107;51.198;6.824;2023-02-23T01:31:49;-21544.03;;;8.55;100.00
19890;BME280;10107;51.198;6.824;2023-02-23T01:35:57;-21543.38;;;8.52;100.00
19890;BME280;10107;51.198;6.824;2023-02-23T01:40:00;-21543.38;;;8.52;100.00
19890;BME280;10107;51.198;6.824;2023-02-23T01:44:06;-21542.97;;;8.50;100.00
19890;BME280;10107;51.198;6.824;2023-02-23T01:48:10;-21542.97;;;8.50;100.00
19890;BME280;10107;51.198;6.824;2023-02-23T01:52:13;-21543.09;;;8.51;100.00
19890;BME280;10107;51.198;6.824;2023-02-23T01:56:19;-21543.22;;;8.51;100.00
19890;BME280;10107;51.198;6.824;2023-02-23T02:00:21;-21543.38;;;8.52;100.00
19890;BME280;10107;51.198;6.824;2023-02-23T02:04:25;-21542.97;;;8.50;100.00
19890;BME280;10107;51.198;6.824;2023-02-23T02:08:27;-21542.69;;;8.49;100.00
19890;BME280;10107;51.198;6.824;2023-02-23T02:12:34;-21542.69;;;8.49;100.00
19890;BME280;10107;51.198;6.824;2023-02-23T02:16:39;-21542.31;;;8.48;100.00
19890;BME280;10107;51.198;6.824;2023-02-23T02:20:53;-21542.44;;;8.48;100.00
19890;BME280;10107;51.198;6.824;2023-02-23T02:25:11;-21542.31;;;8.48;100.00
19890;BME280;10107;51.198;6.824;2023-02-23T02:29:39;-21541.91;;;8.46;100.00
19890;BME280;10107;51.198;6.824;2023-02-23T02:33:58;-21541.91;;;8.46;100.00
19890;BME280;10107;51.198;6.824;2023-02-23T02:38:16;-21541.63;;;8.45;100.00
19890;BME280;10107;51.198;6.824;2023-02-23T02:42:24;-21541.38;;;8.44;100.00
19890;BME280;10107;51.198;6.824;2023-02-23T02:46:29;-21540.72;;;8.42;100.00
19890;BME280;10107;51.198;6.824;2023-02-23T02:50:36;-21540.56;;;8.41;100.00
19890;BME280;10107;51.198;6.824;2023-02-23T02:54:45;-21540.44;;;8.41;100.00
19890;BME280;10107;51.198;6.824;2023-02-23T02:58:48;-21540.31;;;8.40;100.00
19890;BME280;10107;51.198;6.824;2023-02-23T03:02:51;-21540.44;;;8.41;100.00
19890;BME280;10107;51.198;6.824;2023-02-23T03:07:13;-21540.31;;;8.40;100.00
19890;BME280;10107;51.198;6.824;2023-02-23T03:11:42;-21540.16;;;8.40;100.00
19890;BME280;10107;51.198;6.824;2023-02-23T03:16:11;-21539.63;;;8.38;100.00
19890;BME280;10107;51.198;6.824;2023-02-23T03:20:36;-21539.50;;;8.37;100.00
19890;BME280;10107;51.198;6.824;2023-02-23T03:24:59;-21538.84;;;8.35;100.00
19890;BME280;10107;51.198;6.824;2023-02-23T03:29:27;-21538.72;;;8.34;100.00
19890;BME280;10107;51.198;6.824;2023-02-23T03:33:52;-21537.91;;;8.31;100.00
19890;BME280;10107;51.198;6.824;2023-02-23T03:38:14;-21537.38;;;8.29;100.00
19890;BME280;10107;51.198;6.824;2023-02-23T03:42:35;-21537.13;;;8.28;100.00
19890;BME280;10107;51.198;6.824;2023-02-23T03:46:56;-21536.44;;;8.25;100.00
19890;BME280;10107;51.198;6.824;2023-02-23T03:51:17;-21535.13;;;8.20;100.00
19890;BME280;10107;51.198;6.824;2023-02-23T03:55:38;-21534.72;;;8.19;100.00
19890;BME280;10107;51.198;6.824;2023-02-23T03:59:59;-21533.66;;;8.15;100.00
19890;BME280;10107;51.198;6.824;2023-02-23T04:04:20;-21533.00;;;8.12;100.00
19890;BME280;10107;51.198;6.824;2023-02-23T04:08:41;-21532.47;;;8.10;100.00
19890;BME280;10107;51.198;6.824;2023-02-23T04:13:02;-21531.53;;;8.06;100.00
19890;BME280;10107;51.198;6.824;2023-02-23T04:17:16;-21530.72;;;8.03;100.00
19890;BME280;10107;51.198;6.824;2023-02-23T04:21:24;-21530.19;;;8.01;100.00
19890;BME280;10107;51.198;6.824;2023-02-23T04:25:26;-21530.59;;;8.03;100.00
19890;BME280;10107;51.198;6.824;2023-02-23T04:29:29;-21530.19;;;8.01;100.00
19890;BME280;10107;51.198;6.824;2023-02-23T04:33:31;-21529.94;;;8.00;100.00
19890;BME280;10107;51.198;6.824;2023-02-23T04:37:34;-21529.41;;;7.98;100.00
19890;BME280;10107;51.198;6.824;2023-02-23T04:41:35;-21529.28;;;7.98;100.00
19890;BME280;10107;51.198;6.824;2023-02-23T04:45:37;-21529.13;;;7.97;100.00
19890;BME280;10107;51.198;6.824;2023-02-23T04:49:39;-21528.75;;;7.96;100.00
19890;BME280;10107;51.198;6.824;2023-02-23T04:53:42;-21528.75;;;7.96;100.00
19890;BME280;10107;51.198;6.824;2023-02-23T04:57:44;-21527.69;;;7.91;100.00
19890;BME280;10107;51.198;6.824;2023-02-23T05:01:45;-21527.41;;;7.90;100.00
19890;BME280;10107;51.198;6.824;2023-02-23T05:05:47;-21527.16;;;7.89;100.00
19890;BME280;10107;51.198;6.824;2023-02-23T05:09:49;-21527.00;;;7.89;100.00
19890;BME280;10107;51.198;6.824;2023-02-23T05:13:51;-21527.53;;;7.91;100.00
19890;BME280;10107;51.198;6.824;2023-02-23T05:17:53;-21527.81;;;7.92;100.00
19890;BME280;10107;51.198;6.824;2023-02-23T05:21:55;-21527.94;;;7.92;100.00
19890;BME280;10107;51.198;6.824;2023-02-23T05:25:59;-21527.94;;;7.92;100.00
19890;BME280;10107;51.198;6.824;2023-02-23T05:30:03;-21527.94;;;7.92;100.00
19890;BME280;10107;51.198;6.824;2023-02-23T05:34:06;-21528.06;;;7.93;100.00
19890;BME280;10107;51.198;6.824;2023-02-23T05:38:08;-21528.34;;;7.94;100.00
19890;BME280;10107;51.198;6.824;2023-02-23T05:42:11;-21528.06;;;7.93;100.00
19890;BME280;10107;51.198;6.824;2023-02-23T05:46:14;-21528.22;;;7.93;100.00
19890;BME280;10107;51.198;6.824;2023-02-23T05:50:16;-21527.53;;;7.91;100.00
19890;BME280;10107;51.198;6.824;2023-02-23T05:54:18;-21527.53;;;7.91;100.00
19890;BME280;10107;51.198;6.824;2023-02-23T05:58:21;-21527.28;;;7.90;100.00
19890;BME280;10107;51.198;6.824;2023-02-23T06:02:22;-21527.16;;;7.89;100.00
19890;BME280;10107;51.198;6.824;2023-02-23T06:06:24;-21527.00;;;7.89;100.00
19890;BME280;10107;51.198;6.824;2023-02-23T06:10:25;-21527.00;;;7.89;100.00
19890;BME280;10107;51.198;6.824;2023-02-23T06:14:28;-21527.16;;;7.89;100.00
19890;BME280;10107;51.198;6.824;2023-02-23T06:18:30;-21527.41;;;7.90;100.00
19890;BME280;10107;51.198;6.824;2023-02-23T06:22:31;-21527.41;;;7.90;100.00
19890;BME280;10107;51.198;6.824;2023-02-23T06:26:33;-21527.41;;;7.90;100.00
19890;BME280;10107;51.198;6.824;2023-02-23T06:30:36;-21527.81;;;7.92;100.00
19890;BME280;10107;51.198;6.824;2023-02-23T06:34:38;-21527.81;;;7.92;100.00
19890;BME280;10107;51.198;6.824;2023-02-23T06:38:39;-21527.94;;;7.92;100.00
19890;BME280;10107;51.198;6.824;2023-02-23T06:42:41;-21527.69;;;7.91;100.00
19890;BME280;10107;51.198;6.824;2023-02-23T06:46:43;-21527.69;;;7.91;100.00
19890;BME280;10107;51.198;6.824;2023-02-23T06:50:45;-21527.53;;;7.91;100.00
19890;BME280;10107;51.198;6.824;2023-02-23T06:54:46;-21527.81;;;7.92;100.00
19890;BME280;10107;51.198;6.824;2023-02-23T06:58:49;-21528.06;;;7.93;100.00
19890;BME280;10107;51.198;6.824;2023-02-23T07:02:52;-21527.28;;;7.90;100.00
19890;BME280;10107;51.198;6.824;2023-02-23T07:06:53;-21527.28;;;7.90;100.00
19890;BME280;10107;51.198;6.824;2023-02-23T07:10:54;-21526.75;;;7.88;100.00
19890;BME280;10107;51.198;6.824;2023-02-23T07:14:56;-21526.22;;;7.86;100.00
19890;BME280;10107;51.198;6.824;2023-02-23T07:18:59;-21526.75;;;7.88;100.00
19890;BME280;10107;51.198;6.824;2023-02-23T07:23:01;-21527.28;;;7.90;100.00
19890;BME280;10107;51.198;6.824;2023-02-23T07:27:02;-21527.94;;;7.92;100.00
19890;BME280;10107;51.198;6.824;2023-02-23T07:31:04;-21528.06;;;7.93;100.00
19890;BME280;10107;51.198;6.824;2023-02-23T07:35:07;-21528.06;;;7.93;100.00
19890;BME280;10107;51.198;6.824;2023-02-23T07:39:09;-21528.06;;;7.93;100.00
19890;BME280;10107;51.198;6.824;2023-02-23T07:43:10;-21529.28;;;7.98;100.00
19890;BME280;10107;51.198;6.824;2023-02-23T07:47:12;-21529.66;;;7.99;100.00
19890;BME280;10107;51.198;6.824;2023-02-23T07:51:14;-21530.88;;;8.04;100.00
19890;BME280;10107;51.198;6.824;2023-02-23T07:55:16;-21532.19;;;8.09;100.00
19890;BME280;10107;51.198;6.824;2023-02-23T07:59:17;-21532.31;;;8.09;100.00
19890;BME280;10107;51.198;6.824;2023-02-23T08:03:19;-21533.78;;;8.15;100.00
19890;BME280;10107;51.198;6.824;2023-02-23T08:07:22;-21534.72;;;8.19;100.00
19890;BME280;10107;51.198;6.824;2023-02-23T08:11:23;-21535.00;;;8.20;100.00
19890;BME280;10107;51.198;6.824;2023-02-23T08:15:27;-21535.53;;;8.22;100.00
19890;BME280;10107;51.198;6.824;2023-02-23T08:19:29;-21536.06;;;8.24;100.00
19890;BME280;10107;51.198;6.824;2023-02-23T08:23:32;-21536.59;;;8.26;100.00
19890;BME280;10107;51.198;6.824;2023-02-23T08:27:34;-21536.97;;;8.27;100.00
19890;BME280;10107;51.198;6.824;2023-02-23T08:31:35;-21537.66;;;8.30;100.00
19890;BME280;10107;51.198;6.824;2023-02-23T08:35:37;-21538.44;;;8.33;100.00
19890;BME280;10107;51.198;6.824;2023-02-23T08:39:40;-21538.97;;;8.35;100.00
19890;BME280;10107;51.198;6.824;2023-02-23T08:43:41;-21538.97;;;8.35;100.00
19890;BME280;10107;51.198;6.824;2023-02-23T08:47:42;-21538.31;;;8.32;100.00
19890;BME280;10107;51.198;6.824;2023-02-23T08:51:44;-21539.63;;;8.38;100.00
19890;BME280;10107;51.198;6.824;2023-02-23T08:55:47;-21542.16;;;8.47;100.00
19890;BME280;10107;51.198;6.824;2023-02-23T08:59:49;-21544.28;;;8.56;100.00
19890;BME280;10107;51.198;6.824;2023-02-23T09:03:50;-21545.09;;;8.59;100.00
19890;BME280;10107;51.198;6.824;2023-02-23T09:07:52;-21547.09;;;8.66;100.00
19890;BME280;10107;51.198;6.824;2023-02-23T09:11:54;-21551.19;;;8.82;100.00
19890;BME280;10107;51.198;6.824;2023-02-23T09:15:56;-21555.97;;;9.01;100.00
19890;BME280;10107;51.198;6.824;2023-02-23T09:19:58;-21562.88;;;9.27;100.00
19890;BME280;10107;51.198;6.824;2023-02-23T09:23:59;-21568.34;;;9.48;100.00
19890;BME280;10107;51.198;6.824;2023-02-23T09:28:02;-21571.91;;;9.62;100.00
19890;BME280;10107;51.198;6.824;2023-02-23T09:32:04;-21577.63;;;9.84;100.00
19890;BME280;10107;51.198;6.824;2023-02-23T09:36:06;-21586.63;;;10.19;100.00
19890;BME280;10107;51.198;6.824;2023-02-23T09:40:08;-21590.88;;;10.36;100.00
19890;BME280;10107;51.198;6.824;2023-02-23T09:44:13;-21590.88;;;10.36;100.00
19890;BME280;10107;51.198;6.824;2023-02-23T09:48:16;-21589.16;;;10.29;100.00
19890;BME280;10107;51.198;6.824;2023-02-23T09:52:19;-21585.69;;;10.16;100.00
19890;BME280;10107;51.198;6.824;2023-02-23T09:56:24;-21584.25;;;10.10;100.00
19890;BME280;10107;51.198;6.824;2023-02-23T10:00:33;-21582.13;;;10.02;100.00
19890;BME280;10107;51.198;6.824;2023-02-23T10:04:38;-21581.47;;;9.99;100.00
19890;BME280;10107;51.198;6.824;2023-02-23T10:08:43;-21579.06;;;9.90;100.00
19890;BME280;10107;51.198;6.824;2023-02-23T10:12:49;-21579.47;;;9.91;100.00
19890;BME280;10107;51.198;6.824;2023-02-23T10:16:59;-21578.00;;;9.86;100.00
19890;BME280;10107;51.198;6.824;2023-02-23T10:21:07;-21577.75;;;9.85;100.00
19890;BME280;10107;51.198;6.824;2023-02-23T10:25:12;-21573.38;;;9.68;100.00
19890;BME280;10107;51.198;6.824;2023-02-23T10:29:18;-21567.94;;;9.47;100.00
19890;BME280;10107;51.198;6.824;2023-02-23T10:33:23;-21563.56;;;9.30;100.00
19890;BME280;10107;51.198;6.824;2023-02-23T10:37:27;-21562.50;;;9.26;100.00
19890;BME280;10107;51.198;6.824;2023-02-23T10:41:28;-21562.63;;;9.26;100.00
19890;BME280;10107;51.198;6.824;2023-02-23T10:45:33;-21562.09;;;9.24;100.00
19890;BME280;10107;51.198;6.824;2023-02-23T10:49:39;-21561.03;;;9.20;100.00
19890;BME280;10107;51.198;6.824;2023-02-23T10:53:43;-21557.03;;;9.05;100.00
19890;BME280;10107;51.198;6.824;2023-02-23T10:57:44;-21557.97;;;9.08;100.00
19890;BME280;10107;51.198;6.824;2023-02-23T11:01:46;-21560.75;;;9.19;100.00
19890;BME280;10107;51.198;6.824;2023-02-23T11:05:49;-21558.63;;;9.11;100.00
19890;BME280;10107;51.198;6.824;2023-02-23T11:09:52;-21554.13;;;8.94;100.00
19890;BME280;10107;51.198;6.824;2023-02-23T11:13:55;-21550.00;;;8.78;100.00
19890;BME280;10107;51.198;6.824;2023-02-23T11:17:57;-21549.34;;;8.75;100.00
19890;BME280;10107;51.198;6.824;2023-02-23T11:22:01;-21552.94;;;8.89;100.00
19890;BME280;10107;51.198;6.824;2023-02-23T11:26:04;-21558.63;;;9.11;100.00
19890;BME280;10107;51.198;6.824;2023-02-23T11:30:09;-21564.09;;;9.32;100.00
19890;BME280;10107;51.198;6.824;2023-02-23T11:34:26;-21569.66;;;9.54;100.00
19890;BME280;10107;51.198;6.824;2023-02-23T11:38:29;-21575.34;;;9.76;100.00
19890;BME280;10107;51.198;6.824;2023-02-23T11:42:32;-21580.94;;;9.97;100.00
19890;BME280;10107;51.198;6.824;2023-02-23T11:46:35;-21589.41;;;10.30;100.00
19890;BME280;10107;51.198;6.824;2023-02-23T11:50:38;-21599.75;;;10.70;100.00
19890;BME280;10107;51.198;6.824;2023-02-23T11:54:51;-21608.22;;;11.03;100.00
19890;BME280;10107;51.198;6.824;2023-02-23T11:58:55;-21598.69;;;10.66;100.00
19890;BME280;10107;51.198;6.824;2023-02-23T12:02:59;-21587.28;;;10.22;100.00
19890;BME280;10107;51.198;6.824;2023-02-23T12:11:20;-21572.97;;;9.66;100.00
19890;BME280;10107;51.198;6.824;2023-02-23T12:15:30;-21567.41;;;9.45;100.00
19890;BME280;10107;51.198;6.824;2023-02-23T12:19:35;-21557.72;;;9.07;100.00
19890;BME280;10107;51.198;6.824;2023-02-23T12:23:39;-21551.59;;;8.84;100.00
19890;BME280;10107;51.198;6.824;2023-02-23T12:27:45;-21551.88;;;8.85;100.00
19890;BME280;10107;51.198;6.824;2023-02-23T12:31:51;-21551.72;;;8.84;100.00
19890;BME280;10107;51.198;6.824;2023-02-23T12:35:55;-21551.19;;;8.82;100.00
19890;BME280;10107;51.198;6.824;2023-02-23T12:40:02;-21551.47;;;8.83;100.00
19890;BME280;10107;51.198;6.824;2023-02-23T12:44:07;-21550.00;;;8.78;100.00
19890;BME280;10107;51.198;6.824;2023-02-23T12:48:17;-21550.94;;;8.81;100.00
19890;BME280;10107;51.198;6.824;2023-02-23T12:52:26;-21554.00;;;8.93;100.00
19890;BME280;10107;51.198;6.824;2023-02-23T12:56:38;-21559.69;;;9.15;100.00
19890;BME280;10107;51.198;6.824;2023-02-23T13:00:48;-21563.41;;;9.29;100.00
19890;BME280;10107;51.198;6.824;2023-02-23T13:05:04;-21564.09;;;9.32;100.00
19890;BME280;10107;51.198;6.824;2023-02-23T13:09:15;-21565.81;;;9.39;100.00
19890;BME280;10107;51.198;6.824;2023-02-23T13:13:22;-21568.19;;;9.48;100.00
19890;BME280;10107;51.198;6.824;2023-02-23T13:17:30;-21568.19;;;9.48;100.00
19890;BME280;10107;51.198;6.824;2023-02-23T13:21:33;-21570.19;;;9.56;100.00
19890;BME280;10107;51.198;6.824;2023-02-23T13:25:39;-21573.75;;;9.69;100.00
19890;BME280;10107;51.198;6.824;2023-02-23T13:29:43;-21573.38;;;9.68;100.00
19890;BME280;10107;51.198;6.824;2023-02-23T13:33:47;-21571.13;;;9.59;100.00
19890;BME280;10107;51.198;6.824;2023-02-23T13:37:49;-21568.59;;;9.49;100.00
19890;BME280;10107;51.198;6.824;2023-02-23T13:41:55;-21567.13;;;9.44;100.00
19890;BME280;10107;51.198;6.824;2023-02-23T13:46:14;-21562.22;;;9.25;100.00
19890;BME280;10107;51.198;6.824;2023-02-23T13:50:21;-21560.22;;;9.17;100.00
19890;BME280;10107;51.198;6.824;2023-02-23T13:54:30;-21559.56;;;9.15;100.00
19890;BME280;10107;51.198;6.824;2023-02-23T13:58:32;-21561.56;;;9.22;100.00
19890;BME280;10107;51.198;6.824;2023-02-23T14:02:34;-21561.56;;;9.22;100.00
19890;BME280;10107;51.198;6.824;2023-02-23T14:06:38;-21559.84;;;9.16;100.00
19890;BME280;10107;51.198;6.824;2023-02-23T14:10:40;-21556.66;;;9.03;100.00
19890;BME280;10107;51.198;6.824;2023-02-23T14:14:44;-21555.06;;;8.97;100.00
19890;BME280;10107;51.198;6.824;2023-02-23T14:18:55;-21553.31;;;8.90;100.00
19890;BME280;10107;51.198;6.824;2023-02-23T14:23:26;-21553.31;;;8.90;100.00
19890;BME280;10107;51.198;6.824;2023-02-23T14:27:32;-21551.88;;;8.85;100.00
19890;BME280;10107;51.198;6.824;2023-02-23T14:31:37;-21551.34;;;8.83;100.00
19890;BME280;10107;51.198;6.824;2023-02-23T14:35:42;-21549.59;;;8.76;100.00
19890;BME280;10107;51.198;6.824;2023-02-23T14:39:46;-21548.94;;;8.74;100.00
19890;BME280;10107;51.198;6.824;2023-02-23T14:43:49;-21547.34;;;8.67;100.00
19890;BME280;10107;51.198;6.824;2023-02-23T14:47:54;-21546.03;;;8.62;100.00
19890;BME280;10107;51.198;6.824;2023-02-23T14:51:59;-21546.81;;;8.65;100.00
19890;BME280;10107;51.198;6.824;2023-02-23T14:56:15;-21546.56;;;8.64;100.00
19890;BME280;10107;51.198;6.824;2023-02-23T15:00:18;-21545.09;;;8.59;100.00
19890;BME280;10107;51.198;6.824;2023-02-23T15:04:23;-21543.38;;;8.52;100.00
19890;BME280;10107;51.198;6.824;2023-02-23T15:08:26;-21542.44;;;8.48;100.00
19890;BME280;10107;51.198;6.824;2023-02-23T15:12:33;-21540.97;;;8.43;100.00
19890;BME280;10107;51.198;6.824;2023-02-23T15:16:36;-21539.91;;;8.39;100.00
19890;BME280;10107;51.198;6.824;2023-02-23T15:20:39;-21535.66;;;8.22;100.00
19890;BME280;10107;51.198;6.824;2023-02-23T15:24:46;-21533.53;;;8.14;100.00
19890;BME280;10107;51.198;6.824;2023-02-23T15:28:49;-21533.13;;;8.12;100.00
19890;BME280;10107;51.198;6.824;2023-02-23T15:32:58;-21533.66;;;8.15;100.00
19890;BME280;10107;51.198;6.824;2023-02-23T15:37:00;-21533.78;;;8.15;100.00
19890;BME280;10107;51.198;6.824;2023-02-23T15:41:03;-21534.59;;;8.18;100.00
19890;BME280;10107;51.198;6.824;2023-02-23T15:45:12;-21535.13;;;8.20;100.00
19890;BME280;10107;51.198;6.824;2023-02-23T15:49:14;-21535.38;;;8.21;100.00
19890;BME280;10107;51.198;6.824;2023-02-23T15:53:21;-21536.06;;;8.24;100.00
19890;BME280;10107;51.198;6.824;2023-02-23T15:57:25;-21537.25;;;8.28;100.00
19890;BME280;10107;51.198;6.824;2023-02-23T16:01:29;-21538.44;;;8.33;100.00
19890;BME280;10107;51.198;6.824;2023-02-23T16:05:31;-21539.09;;;8.36;100.00
19890;BME280;10107;51.198;6.824;2023-02-23T16:09:38;-21537.91;;;8.31;100.00
19890;BME280;10107;51.198;6.824;2023-02-23T16:13:41;-21537.78;;;8.30;100.00
19890;BME280;10107;51.198;6.824;2023-02-23T16:17:45;-21536.19;;;8.24;100.00
19890;BME280;10107;51.198;6.824;2023-02-23T16:21:48;-21535.53;;;8.22;100.00
19890;BME280;10107;51.198;6.824;2023-02-23T16:25:54;-21534.19;;;8.17;100.00
19890;BME280;10107;51.198;6.824;2023-02-23T16:29:58;-21534.06;;;8.16;100.00
19890;BME280;10107;51.198;6.824;2023-02-23T16:34:01;-21533.66;;;8.15;100.00
19890;BME280;10107;51.198;6.824;2023-02-23T16:38:10;-21532.84;;;8.11;100.00
19890;BME280;10107;51.198;6.824;2023-02-23T16:42:16;-21531.78;;;8.07;100.00
19890;BME280;10107;51.198;6.824;2023-02-23T16:46:21;-21531.13;;;8.05;100.00
19890;BME280;10107;51.198;6.824;2023-02-23T16:50:25;-21531.00;;;8.04;100.00
19890;BME280;10107;51.198;6.824;2023-02-23T16:54:27;-21530.72;;;8.03;100.00
19890;BME280;10107;51.198;6.824;2023-02-23T16:58:29;-21530.59;;;8.03;100.00
19890;BME280;10107;51.198;6.824;2023-02-23T17:02:32;-21529.81;;;8.00;100.00
19890;BME280;10107;51.198;6.824;2023-02-23T17:06:36;-21529.41;;;7.98;100.00
19890;BME280;10107;51.198;6.824;2023-02-23T17:10:39;-21529.28;;;7.98;100.00
19890;BME280;10107;51.198;6.824;2023-02-23T17:14:42;-21528.22;;;7.93;100.00
19890;BME280;10107;51.198;6.824;2023-02-23T17:18:44;-21528.06;;;7.93;100.00
19890;BME280;10107;51.198;6.824;2023-02-23T17:22:47;-21528.34;;;7.94;100.00
19890;BME280;10107;51.198;6.824;2023-02-23T17:26:49;-21527.81;;;7.92;100.00
19890;BME280;10107;51.198;6.824;2023-02-23T17:30:51;-21527.81;;;7.92;100.00
19890;BME280;10107;51.198;6.824;2023-02-23T17:34:53;-21527.28;;;7.90;100.00
19890;BME280;10107;51.198;6.824;2023-02-23T17:38:56;-21527.28;;;7.90;100.00
19890;BME280;10107;51.198;6.824;2023-02-23T17:42:59;-21526.06;;;7.85;100.00
19890;BME280;10107;51.198;6.824;2023-02-23T17:47:02;-21525.41;;;7.83;100.00
19890;BME280;10107;51.198;6.824;2023-02-23T17:51:05;-21525.28;;;7.82;100.00
19890;BME280;10107;51.198;6.824;2023-02-23T17:55:09;-21524.63;;;7.80;100.00
19890;BME280;10107;51.198;6.824;2023-02-23T17:59:10;-21524.34;;;7.79;100.00
19890;BME280;10107;51.198;6.824;2023-02-23T18:03:12;-21523.41;;;7.75;100.00
19890;BME280;10107;51.198;6.824;2023-02-23T18:07:14;-21523.28;;;7.74;100.00
19890;BME280;10107;51.198;6.824;2023-02-23T18:11:17;-21522.50;;;7.71;100.00
19890;BME280;10107;51.198;6.824;2023-02-23T18:15:19;-21521.81;;;7.69;100.00
19890;BME280;10107;51.198;6.824;2023-02-23T18:19:20;-21520.75;;;7.65;100.00
19890;BME280;10107;51.198;6.824;2023-02-23T18:23:23;-21519.56;;;7.60;100.00
19890;BME280;10107;51.198;6.824;2023-02-23T18:27:26;-21519.69;;;7.61;100.00
19890;BME280;10107;51.198;6.824;2023-02-23T18:31:27;-21519.03;;;7.58;100.00
19890;BME280;10107;51.198;6.824;2023-02-23T18:35:31;-21516.91;;;7.50;100.00
19890;BME280;10107;51.198;6.824;2023-02-23T18:39:35;-21516.38;;;7.48;100.00
19890;BME280;10107;51.198;6.824;2023-02-23T18:43:37;-21515.84;;;7.46;100.00
19890;BME280;10107;51.198;6.824;2023-02-23T18:47:39;-21516.09;;;7.47;100.00
19890;BME280;10107;51.198;6.824;2023-02-23T18:51:41;-21512.63;;;7.33;100.00
19890;BME280;10107;51.198;6.824;2023-02-23T18:55:42;-21511.03;;;7.27;100.00
19890;BME280;10107;51.198;6.824;2023-02-23T18:59:47;-21509.97;;;7.23;100.00
19890;BME280;10107;51.198;6.824;2023-02-23T19:03:50;-21509.19;;;7.20;100.00
19890;BME280;10107;51.198;6.824;2023-02-23T19:07:51;-21507.84;;;7.15;100.00
19890;BME280;10107;51.198;6.824;2023-02-23T19:11:53;-21507.31;;;7.13;100.00
19890;BME280;10107;51.198;6.824;2023-02-23T19:15:56;-21507.03;;;7.12;100.00
19890;BME280;10107;51.198;6.824;2023-02-23T19:19:58;-21507.03;;;7.12;100.00
19890;BME280;10107;51.198;6.824;2023-02-23T19:24:00;-21507.72;;;7.14;100.00
19890;BME280;10107;51.198;6.824;2023-02-23T19:28:03;-21508.09;;;7.16;100.00
19890;BME280;10107;51.198;6.824;2023-02-23T19:32:09;-21507.31;;;7.13;100.00
19890;BME280;10107;51.198;6.824;2023-02-23T19:36:17;-21506.25;;;7.09;100.00
19890;BME280;10107;51.198;6.824;2023-02-23T19:40:19;-21505.72;;;7.07;100.00
19890;BME280;10107;51.198;6.824;2023-02-23T19:44:22;-21505.59;;;7.06;100.00
19890;BME280;10107;51.198;6.824;2023-02-23T19:48:25;-21505.19;;;7.05;100.00
19890;BME280;10107;51.198;6.824;2023-02-23T19:52:28;-21505.19;;;7.05;100.00
19890;BME280;10107;51.198;6.824;2023-02-23T19:56:31;-21505.31;;;7.05;100.00
19890;BME280;10107;51.198;6.824;2023-02-23T20:00:32;-21505.03;;;7.04;100.00
19890;BME280;10107;51.198;6.824;2023-02-23T20:04:35;-21505.03;;;7.04;100.00
19890;BME280;10107;51.198;6.824;2023-02-23T20:08:37;-21504.38;;;7.02;100.00
19890;BME280;10107;51.198;6.824;2023-02-23T20:12:38;-21503.97;;;7.00;100.00
19890;BME280;10107;51.198;6.824;2023-02-23T20:16:40;-21502.91;;;6.96;100.00
19890;BME280;10107;51.198;6.824;2023-02-23T20:20:43;-21500.13;;;6.85;100.00
19890;BME280;10107;51.198;6.824;2023-02-23T20:24:45;-21497.19;;;6.74;100.00
19890;BME280;10107;51.198;6.824;2023-02-23T20:28:47;-21493.59;;;6.60;100.00
19890;BME280;10107;51.198;6.824;2023-02-23T20:32:50;-21491.31;;;6.51;100.00
19890;BME280;10107;51.198;6.824;2023-02-23T20:36:53;-21491.72;;;6.53;100.00
19890;BME280;10107;51.198;6.824;2023-02-23T20:40:55;-21493.47;;;6.60;100.00
19890;BME280;10107;51.198;6.824;2023-02-23T20:44:57;-21495.31;;;6.67;100.00
19890;BME280;10107;51.198;6.824;2023-02-23T20:48:59;-21496.38;;;6.71;100.00
19890;BME280;10107;51.198;6.824;2023-02-23T20:53:04;-21497.47;;;6.75;100.00
19890;BME280;10107;51.198;6.824;2023-02-23T20:57:07;-21498.66;;;6.80;100.00
19890;BME280;10107;51.198;6.824;2023-02-23T21:01:11;-21498.66;;;6.80;100.00
19890;BME280;10107;51.198;6.824;2023-02-23T21:05:14;-21499.47;;;6.83;100.00
19890;BME280;10107;51.198;6.824;2023-02-23T21:09:17;-21499.84;;;6.84;100.00
19890;BME280;10107;51.198;6.824;2023-02-23T21:13:18;-21500.38;;;6.86;100.00
19890;BME280;10107;51.198;6.824;2023-02-23T21:17:22;-21500.66;;;6.87;100.00
19890;BME280;10107;51.198;6.824;2023-02-23T21:21:23;-21500.78;;;6.88;100.00
19890;BME280;10107;51.198;6.824;2023-02-23T21:25:29;-21500.78;;;6.88;100.00